KLCK/LCK METAR and TAF weather

Enter ICAO airport designator
Station Type Date Time Source
KLCK METAR 2020/01/19 22:55 UTC NOAA

KLCK 192255Z AUTO 27011G15KT 10SM -SN OVC022 M10/M14 A3031 RMK AO2 T10961143


Station Type Date Time Source
KLCK Decoded METAR 2020/01/19 22:55 UTC NOAA

Rickenbacker Air National Guard Base, OH, United States (KLCK) 39-49N 082-56W
Jan 19, 2020 - 05:55 PM EST / 2020.01.19 2255 UTC
Wind: from the W (270 degrees) at 13 MPH (11 KT) gusting to 17 MPH (15 KT):0
Visibility: 10 mile(s):0
Sky conditions: overcast
Weather: light snow
Temperature: 14.7 F (-9.6 C)
Windchill: 0 F (-18 C):1
Dew Point: 6.3 F (-14.3 C)
Relative Humidity: 68%
Pressure (altimeter): 30.31 in. Hg (1026 hPa)
ob: KLCK 192255Z AUTO 27011G15KT 10SM -SN OVC022 M10/M14 A3031 RMK AO2 T10961143
cycle: 23

Station Type Date Time Source
KLCK TAF 2020/01/19 22:34 UTC NOAA

TAF
AMD KLCK 192218Z 1922/2018 28014KT P6SM -SHSN OVC024
FM192300 30012KT P6SM OVC024
FM200600 32007KT P6SM BKN025
FM201200 33006KT P6SM SCT025
FM201700 36006KT P6SM SCT025

Example: see airport list